Main page
METAR-TAF:

METAR-TAF

Airports :

Donegal Airport

Donegal, Ireland

latitude: 55-02-39N, longitude: 8-20-28W, elevation: 9 m

Current weather observation

The report was made 6 hours and 31 minutes ago, at 18:30 UTC
Wind 11 kt from the North/Northeast
Temperature 5°C
Humidity 65%
Pressure 1019 hPa
Visibility 10 km or more
no clouds below 1500 m and no cumulonimbus

METAR: EIDL 101830Z 02011KT CAVOK 05/M01 Q1019

Time: 02:01 (01:01 UTC)

Forecast

The report was made 8 hours and 1 minutes ago, at 17:00 UTC
Forecast valid from 10 at 18 UTC to 11 at 03 UTC
Wind 12 kt from the North/Northeast
Visibility 10 km or more
Few clouds at a height of 1800 ft
Probability 30% :
Temporary
from 11 at 00 UTC to 11 at 03 UTC
Visibility: 4500 m
Scattered clouds at a height of 1800 ft, Cumulonimbus.
light rain showers, snow

TAF: EIDL 101700Z 1018/1103 02012KT 9999 FEW018 PROB30 TEMPO 1100/1103 4500 -SHRASN SCT018CB

Weather observations and forecasts of more than 4000 airports (METAR and TAF reports).

The available stations are represented by yellow and red dots on the map.

Hover mouse over dot to see the name of the station.

Then click to see weather observations and forecasts.

To change the map : click on the green buttons with a black cross to zoom in, on the green button with a dash to zoom out, or on the green arrows for adjacent maps.


METAR-TAF: